This is the latest recevied weather packets stored in our database for station/object KE6JJJ-1. If no packets are shown the sender has not sent any weather packets the latest 10 day(s).
| Time | Temp. | Humidity | Pressure | Rain* | Wind** | Luminosity | Snow |
|---|---|---|---|---|---|---|---|
| 1788690903 | 15° C | 86% | 1014 hPa | 0 mm | - | 0 W/m² | - |
| 1788689104 | 15° C | 86% | 1013.9 hPa | 0 mm | - | 0 W/m² | - |
| 1788687303 | 15° C | 85% | 1013.9 hPa | 0 mm | - | 0 W/m² | - |
| 1788685503 | 15° C | 86% | 1014.3 hPa | 0 mm | - | 0 W/m² | - |
| 1788683703 | 15.56° C | 86% | 1014.2 hPa | 0 mm | - | 0 W/m² | - |
| 1788681934 | 15.56° C | 86% | 1014.2 hPa | 0 mm | - | 0 W/m² | - |
| 1788681904 | 15.56° C | 86% | 1014.2 hPa | 0 mm | - | 0 W/m² | - |
| 1788680103 | 15.56° C | 85% | 1014.4 hPa | 0 mm | - | 0 W/m² | - |
| 1788678304 | 15.56° C | 85% | 1014.4 hPa | 0 mm | - | 0 W/m² | - |
| 1788676503 | 15.56° C | 84% | 1014.3 hPa | 0 mm | - | 0 W/m² | - |
| 1788674703 | 16.11° C | 83% | 1014.6 hPa | 0 mm | - | 0 W/m² | - |
| 1788672903 | 16.11° C | 82% | 1014.6 hPa | 0 mm | - | 0 W/m² | - |
| 1788671104 | 16.67° C | 81% | 1014.6 hPa | 0 mm | - | 0 W/m² | - |
| 1788669303 | 16.67° C | 80% | 1014.4 hPa | 0 mm | - | 0 W/m² | - |
| 1788667504 | 17.22° C | 79% | 1014.2 hPa | 0 mm | - | 0 W/m² | - |
| 1788665703 | 17.22° C | 79% | 1014 hPa | 0 mm | - | 0 W/m² | - |
| 1788663903 | 17.78° C | 78% | 1013.5 hPa | 0 mm | - | 0 W/m² | - |
| 1788662103 | 18.33° C | 76% | 1013.4 hPa | 0 mm | - | 7 W/m² | - |
| 1788660303 | 18.89° C | 71% | 1013.6 hPa | 0 mm | - | 67 W/m² | - |
| 1788658503 | 18.89° C | 72% | 1013.8 hPa | 0 mm | - | 128 W/m² | - |
| 1788656704 | 20.56° C | 68% | 1013.7 hPa | 0 mm | - | 118 W/m² | - |
| 1788654903 | 21.11° C | 66% | 1013.7 hPa | 0 mm | - | 280 W/m² | - |
| 1788653104 | 21.11° C | 65% | 1013.8 hPa | 0 mm | - | 184 W/m² | - |
| 1788651303 | 20.56° C | 68% | 1014.2 hPa | 0 mm | - | 519 W/m² | - |
| 1788649504 | 21.11° C | 71% | 1014.2 hPa | 0 mm | - | 589 W/m² | - |
* Rain latest hour (hover to see other rain measurements)
** Current wind speed in m/s (hover to see current wind gust speed)